createdAt,value
2018-08-31T00:02:35.973Z,2.25
2018-08-31T00:05:15.324Z,2.00
2018-08-31T00:07:53.814Z,2.10
2018-08-31T00:10:21.415Z,2.10
2018-08-31T00:12:48.970Z,2.17
2018-08-31T00:15:16.663Z,1.83
2018-08-31T00:17:44.188Z,2.27
2018-08-31T00:20:11.761Z,2.07
2018-08-31T00:22:39.301Z,2.20
2018-08-31T00:25:06.891Z,2.03
2018-08-31T00:27:56.154Z,2.50
2018-08-31T00:30:46.452Z,2.22
2018-08-31T00:33:15.811Z,2.00
2018-08-31T00:35:43.372Z,2.27
2018-08-31T00:38:11.399Z,2.10
2018-08-31T00:40:39.214Z,2.10
2018-08-31T00:43:06.767Z,2.33
2018-08-31T00:45:34.352Z,2.20
2018-08-31T00:48:01.877Z,1.77
2018-08-31T00:50:29.428Z,1.80
2018-08-31T00:52:57.093Z,1.83
2018-08-31T00:55:24.626Z,1.83
2018-08-31T00:57:52.279Z,2.00
2018-08-31T01:00:19.768Z,1.63
2018-08-31T01:02:47.569Z,2.00
2018-08-31T01:05:15.097Z,2.13
2018-08-31T01:07:42.727Z,1.90
2018-08-31T01:10:11.330Z,2.37
2018-08-31T01:12:38.861Z,1.83
2018-08-31T01:15:06.430Z,1.90
2018-08-31T01:17:33.957Z,1.80
2018-08-31T01:20:01.635Z,2.37
2018-08-31T01:22:29.196Z,2.00
2018-08-31T01:24:56.784Z,2.23
2018-08-31T01:27:24.613Z,2.00
2018-08-31T01:29:52.165Z,1.90
2018-08-31T01:32:19.737Z,1.67
2018-08-31T01:34:47.265Z,1.83
2018-08-31T01:37:14.859Z,2.00
2018-08-31T01:39:42.483Z,2.20
2018-08-31T01:42:10.054Z,2.00
2018-08-31T01:44:37.611Z,2.00
2018-08-31T01:47:05.193Z,1.83
2018-08-31T01:49:32.741Z,2.33
2018-08-31T01:52:00.432Z,2.15
2018-08-31T01:54:27.973Z,2.15
2018-08-31T01:56:55.504Z,2.20
2018-08-31T01:59:23.113Z,2.20
2018-08-31T02:01:50.814Z,2.10
2018-08-31T02:04:18.422Z,2.10
2018-08-31T02:06:46.076Z,1.97
2018-08-31T02:09:13.688Z,1.80
2018-08-31T02:11:41.281Z,2.07
2018-08-31T02:14:08.794Z,1.93
2018-08-31T02:16:36.545Z,2.10
2018-08-31T02:19:04.073Z,2.63
2018-08-31T02:21:31.663Z,2.13
2018-08-31T02:23:59.245Z,2.20
2018-08-31T02:26:26.769Z,2.00
2018-08-31T02:28:54.351Z,2.20
2018-08-31T02:31:21.883Z,2.80
2018-08-31T02:33:49.465Z,2.10
2018-08-31T02:36:17.089Z,2.30
2018-08-31T02:38:44.655Z,2.63
2018-08-31T02:41:12.253Z,2.27
2018-08-31T02:43:39.795Z,2.60
2018-08-31T02:46:07.408Z,2.40
2018-08-31T02:48:34.952Z,2.43
2018-08-31T02:51:02.503Z,2.20
2018-08-31T02:53:30.404Z,2.50
2018-08-31T02:55:57.961Z,2.13
2018-08-31T02:58:25.499Z,2.27
2018-08-31T03:00:53.054Z,1.83
2018-08-31T03:03:28.106Z,2.17
2018-08-31T03:05:55.668Z,2.10
2018-08-31T03:08:23.261Z,1.90
2018-08-31T03:10:50.819Z,2.67
2018-08-31T03:13:18.362Z,2.00
2018-08-31T03:15:45.919Z,2.20
2018-08-31T03:18:13.524Z,2.22
2018-08-31T03:20:41.141Z,2.23
2018-08-31T03:23:08.731Z,2.80
2018-08-31T03:25:36.404Z,2.20
2018-08-31T03:28:03.959Z,2.37
2018-08-31T03:30:31.509Z,2.33
2018-08-31T03:32:59.103Z,2.03
2018-08-31T03:35:26.682Z,2.30
2018-08-31T03:37:54.369Z,2.27
2018-08-31T03:40:21.946Z,2.50
2018-08-31T03:42:49.487Z,2.03
2018-08-31T03:45:17.051Z,2.17
2018-08-31T03:47:44.581Z,2.20
2018-08-31T03:50:12.149Z,2.63
2018-08-31T03:52:39.751Z,2.57
2018-08-31T03:55:07.293Z,2.20
2018-08-31T03:57:34.861Z,2.10
2018-08-31T04:00:02.431Z,2.28
2018-08-31T04:02:30.156Z,2.50
2018-08-31T04:04:57.705Z,2.43
2018-08-31T04:07:25.257Z,2.30
2018-08-31T04:09:52.964Z,2.47
2018-08-31T04:12:20.553Z,2.28
2018-08-31T04:14:48.080Z,2.60
2018-08-31T04:17:15.654Z,3.00
2018-08-31T04:19:43.208Z,2.57
2018-08-31T04:22:11.490Z,2.80
2018-08-31T04:24:39.140Z,2.50
2018-08-31T04:27:06.665Z,2.50
2018-08-31T04:29:34.270Z,2.63
2018-08-31T04:32:01.834Z,2.60
2018-08-31T04:34:29.376Z,2.60
2018-08-31T04:36:56.913Z,2.87
2018-08-31T04:39:24.482Z,3.30
2018-08-31T04:41:52.093Z,2.73
2018-08-31T04:44:19.686Z,3.23
2018-08-31T04:46:47.281Z,2.72
2018-08-31T04:49:14.821Z,2.47
2018-08-31T04:51:42.436Z,3.30
2018-08-31T04:54:09.976Z,2.70
2018-08-31T04:56:37.551Z,3.00
2018-08-31T04:59:05.094Z,3.10
2018-08-31T05:01:32.658Z,2.80
2018-08-31T05:04:00.212Z,2.87
2018-08-31T05:06:27.815Z,2.90
2018-08-31T05:08:55.360Z,2.67
2018-08-31T05:11:22.937Z,2.90
2018-08-31T05:13:50.473Z,2.50
2018-08-31T05:16:18.070Z,2.80
2018-08-31T05:18:45.618Z,2.60
2018-08-31T05:21:13.213Z,2.73
2018-08-31T05:23:40.806Z,3.00
2018-08-31T05:26:08.420Z,3.40
2018-08-31T05:28:36.131Z,2.77
2018-08-31T05:31:03.743Z,2.80
2018-08-31T05:33:31.882Z,2.80
2018-08-31T05:35:59.512Z,3.10
2018-08-31T05:38:28.134Z,3.12
2018-08-31T05:40:55.669Z,3.00
2018-08-31T05:43:23.285Z,2.50
2018-08-31T05:45:50.843Z,2.37
2018-08-31T05:48:18.367Z,2.53
2018-08-31T05:50:45.964Z,2.60
2018-08-31T05:53:13.507Z,2.57
2018-08-31T05:55:41.284Z,2.50
2018-08-31T05:58:08.856Z,2.83
2018-08-31T06:00:36.581Z,2.50
2018-08-31T06:03:04.256Z,3.00
2018-08-31T06:05:31.991Z,3.03
2018-08-31T06:07:59.599Z,2.73
2018-08-31T06:10:27.203Z,2.70
2018-08-31T06:12:54.773Z,2.70
2018-08-31T06:15:22.466Z,3.00
2018-08-31T06:17:50.264Z,2.53
2018-08-31T06:20:18.020Z,2.90
2018-08-31T06:22:45.926Z,2.90
2018-08-31T06:25:13.677Z,3.33
2018-08-31T06:27:41.469Z,3.07
2018-08-31T06:30:09.116Z,3.20
2018-08-31T06:32:36.698Z,2.80
2018-08-31T06:35:04.329Z,2.53
2018-08-31T06:37:32.981Z,3.73
2018-08-31T06:40:00.784Z,2.97
2018-08-31T06:42:28.360Z,3.15
2018-08-31T06:44:55.980Z,3.23
2018-08-31T06:47:23.507Z,3.10
2018-08-31T06:49:51.085Z,2.77
2018-08-31T06:52:18.713Z,4.10
2018-08-31T06:54:46.403Z,3.40
2018-08-31T06:57:13.961Z,3.00
2018-08-31T06:59:41.686Z,3.03
2018-08-31T07:02:09.375Z,3.30
2018-08-31T07:04:36.905Z,3.30
2018-08-31T07:07:04.683Z,3.00
2018-08-31T07:09:32.293Z,3.10
2018-08-31T07:11:59.852Z,3.00
2018-08-31T07:14:27.667Z,2.83
2018-08-31T07:16:55.430Z,2.60
2018-08-31T07:19:22.986Z,2.40
2018-08-31T07:21:50.659Z,2.73
2018-08-31T07:24:18.385Z,3.00
2018-08-31T07:26:46.262Z,2.27
2018-08-31T07:29:14.842Z,2.70
2018-08-31T07:31:42.439Z,2.50
2018-08-31T07:34:10.021Z,2.47
2018-08-31T07:36:37.574Z,2.87
2018-08-31T07:39:05.175Z,3.27
2018-08-31T07:41:32.787Z,2.63
2018-08-31T07:44:00.580Z,3.62
2018-08-31T07:46:28.147Z,3.40
2018-08-31T07:48:55.759Z,3.77
2018-08-31T07:51:23.521Z,3.97
2018-08-31T07:53:51.157Z,3.73
2018-08-31T07:56:18.723Z,2.87
2018-08-31T07:58:46.298Z,3.60
2018-08-31T08:01:13.985Z,3.70
2018-08-31T08:03:41.707Z,3.60
2018-08-31T08:06:09.282Z,3.37
2018-08-31T08:08:36.934Z,3.60
2018-08-31T08:11:04.451Z,3.43
2018-08-31T08:13:32.212Z,3.80
2018-08-31T08:15:59.969Z,5.50
2018-08-31T08:18:27.876Z,3.80
2018-08-31T08:20:55.461Z,4.00
2018-08-31T08:23:22.993Z,3.83
2018-08-31T08:25:50.729Z,3.10
2018-08-31T08:28:18.331Z,3.40
2018-08-31T08:30:45.923Z,3.10
2018-08-31T08:33:13.769Z,3.27
2018-08-31T08:35:41.700Z,3.13
2018-08-31T08:38:09.437Z,2.50
2018-08-31T08:40:36.954Z,2.50
2018-08-31T08:43:04.603Z,2.27
2018-08-31T08:45:32.393Z,2.57
2018-08-31T08:47:59.946Z,2.30
2018-08-31T08:50:27.558Z,2.30
2018-08-31T08:52:55.317Z,2.27
2018-08-31T08:55:23.052Z,2.27
2018-08-31T08:57:50.841Z,2.00
2018-08-31T09:00:18.702Z,1.90
2018-08-31T09:02:46.395Z,1.90
2018-08-31T09:05:14.030Z,2.00
2018-08-31T09:07:41.933Z,2.67
2018-08-31T09:10:09.501Z,1.77
2018-08-31T09:12:37.069Z,2.00
2018-08-31T09:15:04.871Z,2.13
2018-08-31T09:17:32.593Z,1.90
2018-08-31T09:20:00.422Z,1.67
2018-08-31T09:22:28.062Z,1.40
2018-08-31T09:24:55.860Z,1.53
2018-08-31T09:27:23.452Z,1.48
2018-08-31T09:29:51.130Z,1.40
2018-08-31T09:32:19.025Z,1.40
2018-08-31T09:34:46.665Z,1.57
2018-08-31T09:37:14.291Z,1.77
2018-08-31T09:39:41.919Z,1.60
2018-08-31T09:42:09.711Z,1.80
2018-08-31T09:44:37.445Z,1.87
2018-08-31T09:47:05.148Z,1.90
2018-08-31T09:49:33.051Z,1.80
2018-08-31T09:52:00.601Z,1.77
2018-08-31T09:54:28.206Z,1.70
2018-08-31T09:56:55.937Z,1.83
2018-08-31T09:59:23.654Z,1.90
2018-08-31T10:01:51.277Z,1.73
2018-08-31T10:04:18.853Z,1.40
2018-08-31T10:06:46.690Z,1.83
2018-08-31T10:09:14.394Z,1.53
2018-08-31T10:11:42.147Z,2.13
2018-08-31T10:14:09.681Z,1.90
2018-08-31T10:16:37.551Z,2.00
2018-08-31T10:19:06.123Z,1.63
2018-08-31T10:21:33.919Z,1.97
2018-08-31T10:24:01.645Z,1.80
2018-08-31T10:26:29.161Z,1.98
2018-08-31T10:28:56.893Z,2.10
2018-08-31T10:31:24.646Z,1.97
2018-08-31T10:33:52.400Z,1.90
2018-08-31T10:36:20.201Z,2.50
2018-08-31T10:38:48.869Z,2.37
2018-08-31T10:41:16.420Z,2.40
2018-08-31T10:43:44.103Z,1.90
2018-08-31T10:46:11.673Z,2.13
2018-08-31T10:48:39.305Z,2.20
2018-08-31T10:51:07.106Z,2.00
2018-08-31T10:53:34.657Z,2.00
2018-08-31T10:56:02.328Z,2.03
2018-08-31T10:58:30.057Z,1.77
2018-08-31T11:00:57.859Z,1.70
2018-08-31T11:03:25.618Z,1.60
2018-08-31T11:05:53.201Z,1.70
2018-08-31T11:08:20.756Z,1.83
2018-08-31T11:10:48.306Z,1.83
2018-08-31T11:13:15.891Z,1.73
2018-08-31T11:15:43.453Z,1.45
2018-08-31T11:18:11.583Z,2.13
2018-08-31T11:20:40.342Z,1.40
2018-08-31T11:23:08.018Z,1.20
2018-08-31T11:25:35.675Z,1.40
2018-08-31T11:28:03.381Z,1.40
2018-08-31T11:30:30.965Z,1.70
2018-08-31T11:32:58.524Z,1.50
2018-08-31T11:35:26.183Z,1.23
2018-08-31T11:37:53.789Z,1.40
2018-08-31T11:40:21.500Z,1.40
2018-08-31T11:42:49.063Z,1.60
2018-08-31T11:45:16.907Z,1.80
2018-08-31T11:47:44.489Z,1.60
2018-08-31T11:50:12.008Z,1.50
2018-08-31T11:52:39.770Z,1.80
2018-08-31T11:55:07.452Z,1.50
2018-08-31T11:57:35.249Z,2.07
2018-08-31T12:00:03.001Z,1.42
2018-08-31T12:02:30.799Z,1.50
2018-08-31T12:04:58.353Z,1.40
2018-08-31T12:07:26.223Z,1.60
2018-08-31T12:09:54.594Z,1.70
2018-08-31T12:12:22.187Z,1.50
2018-08-31T12:14:50.942Z,1.73
2018-08-31T12:17:19.553Z,2.07
2018-08-31T12:19:47.186Z,2.10
2018-08-31T12:22:14.985Z,2.73
2018-08-31T12:24:42.751Z,2.43
2018-08-31T12:27:10.508Z,2.23
2018-08-31T12:29:38.132Z,1.90
2018-08-31T12:32:05.662Z,1.93
2018-08-31T12:34:33.366Z,1.77
2018-08-31T12:37:01.115Z,2.10
2018-08-31T12:39:28.752Z,1.97
2018-08-31T12:41:56.341Z,1.40
2018-08-31T12:44:24.140Z,1.50
2018-08-31T12:46:51.890Z,1.50
2018-08-31T12:49:20.209Z,1.45
2018-08-31T12:51:47.932Z,1.65
2018-08-31T12:54:15.941Z,1.58
2018-08-31T12:56:43.792Z,1.67
2018-08-31T12:59:11.372Z,1.30
2018-08-31T13:01:38.898Z,1.23
2018-08-31T13:04:06.674Z,1.45
2018-08-31T13:06:34.231Z,1.30
2018-08-31T13:09:02.041Z,1.30
2018-08-31T13:11:29.601Z,1.73
2018-08-31T13:13:57.155Z,2.00
2018-08-31T13:16:24.748Z,1.67
2018-08-31T13:18:52.311Z,1.50
2018-08-31T13:21:19.905Z,1.50
2018-08-31T13:23:47.639Z,1.47
2018-08-31T13:26:15.192Z,1.57
2018-08-31T13:28:42.832Z,1.83
2018-08-31T13:31:10.398Z,1.60
2018-08-31T13:33:37.927Z,1.90
2018-08-31T13:36:05.507Z,1.58
2018-08-31T13:38:33.077Z,1.63
2018-08-31T13:41:00.597Z,1.50
2018-08-31T13:43:28.338Z,2.10
2018-08-31T13:45:56.045Z,1.80
2018-08-31T13:48:23.670Z,2.03
2018-08-31T13:50:51.256Z,1.97
2018-08-31T13:53:19.059Z,1.83
2018-08-31T13:55:46.813Z,1.70
2018-08-31T13:58:14.691Z,1.63
2018-08-31T14:00:42.416Z,2.00
2018-08-31T14:03:10.252Z,1.70
2018-08-31T14:05:37.923Z,1.80
2018-08-31T14:08:05.816Z,1.70
2018-08-31T14:10:33.575Z,1.40
2018-08-31T14:13:01.187Z,1.40
2018-08-31T14:15:28.887Z,1.23
2018-08-31T14:17:56.544Z,1.60
2018-08-31T14:20:25.130Z,1.60
2018-08-31T14:22:53.305Z,1.20
2018-08-31T14:25:21.438Z,1.50
2018-08-31T14:27:50.153Z,1.20
2018-08-31T14:30:18.050Z,1.60
2018-08-31T14:32:47.665Z,1.33
2018-08-31T14:35:16.271Z,1.73
2018-08-31T14:37:44.157Z,1.30
2018-08-31T14:40:11.993Z,1.40
2018-08-31T14:42:39.699Z,1.30
2018-08-31T14:45:07.391Z,1.40
2018-08-31T14:47:35.319Z,1.30
2018-08-31T14:50:03.373Z,1.00
2018-08-31T14:52:31.001Z,1.40
2018-08-31T14:54:58.750Z,1.13
2018-08-31T14:57:26.726Z,1.13
2018-08-31T14:59:54.751Z,1.00
2018-08-31T15:02:22.465Z,1.20
2018-08-31T15:04:50.154Z,1.40
2018-08-31T15:07:17.948Z,1.07
2018-08-31T15:09:45.537Z,1.60
2018-08-31T15:12:13.102Z,1.10
2018-08-31T15:14:40.867Z,1.00
2018-08-31T15:17:08.514Z,1.20
2018-08-31T15:19:36.053Z,1.70
2018-08-31T15:22:03.683Z,1.67
2018-08-31T15:24:31.242Z,1.40
2018-08-31T15:26:58.833Z,1.60
2018-08-31T15:29:26.393Z,1.10
2018-08-31T15:31:53.950Z,1.10
2018-08-31T15:34:21.528Z,1.42
2018-08-31T15:36:49.068Z,1.60
2018-08-31T15:39:16.660Z,1.20
2018-08-31T15:41:48.107Z,1.27
2018-08-31T15:44:15.681Z,1.40
2018-08-31T15:46:43.320Z,1.40
2018-08-31T15:49:10.911Z,1.40
2018-08-31T15:51:38.460Z,1.10
2018-08-31T15:54:06.033Z,1.37
2018-08-31T15:56:33.598Z,0.90
2018-08-31T15:59:01.140Z,1.37
2018-08-31T16:01:28.672Z,1.10
2018-08-31T16:03:56.290Z,1.33
2018-08-31T16:06:23.842Z,1.00
2018-08-31T16:08:51.426Z,1.30
2018-08-31T16:11:19.013Z,1.00
2018-08-31T16:13:46.637Z,1.53
2018-08-31T16:16:14.179Z,0.97
2018-08-31T16:18:42.774Z,1.23
2018-08-31T16:21:10.394Z,1.20
2018-08-31T16:23:38.037Z,1.40
2018-08-31T16:26:05.686Z,1.20
2018-08-31T16:28:33.214Z,0.90
2018-08-31T16:31:00.791Z,1.20
2018-08-31T16:33:28.379Z,1.20
2018-08-31T16:35:55.976Z,1.53
2018-08-31T16:38:23.519Z,1.13
2018-08-31T16:40:51.123Z,1.10
2018-08-31T16:43:18.654Z,1.20
2018-08-31T16:45:46.366Z,1.10
2018-08-31T16:48:17.229Z,1.33
2018-08-31T16:50:45.062Z,1.43
2018-08-31T16:53:12.639Z,1.30
2018-08-31T16:55:40.160Z,1.23
2018-08-31T16:58:07.693Z,1.20
2018-08-31T17:00:35.283Z,1.40
2018-08-31T17:03:02.793Z,1.17
2018-08-31T17:05:30.409Z,1.10
2018-08-31T17:07:58.987Z,1.13
2018-08-31T17:10:26.529Z,1.10
2018-08-31T17:12:54.121Z,1.20
2018-08-31T17:15:21.699Z,1.10
2018-08-31T17:17:49.230Z,1.20
2018-08-31T17:20:16.836Z,1.20
2018-08-31T17:22:44.406Z,0.87
2018-08-31T17:25:11.927Z,1.20
2018-08-31T17:27:44.877Z,1.37
2018-08-31T17:30:12.395Z,1.47
2018-08-31T17:32:55.849Z,1.13
2018-08-31T17:35:38.305Z,1.00
2018-08-31T17:38:05.873Z,1.30
2018-08-31T17:40:42.015Z,1.20
2018-08-31T17:43:09.605Z,1.30
2018-08-31T17:45:37.203Z,1.10
2018-08-31T17:48:04.831Z,1.20
2018-08-31T17:50:32.528Z,1.23
2018-08-31T17:53:02.109Z,1.10
2018-08-31T17:55:29.664Z,1.10
2018-08-31T17:57:57.410Z,1.30
2018-08-31T18:00:24.953Z,1.20
2018-08-31T18:02:52.792Z,1.50
2018-08-31T18:05:24.160Z,1.57
2018-08-31T18:07:51.814Z,1.20
2018-08-31T18:10:19.436Z,1.23
2018-08-31T18:12:47.828Z,2.30
2018-08-31T18:15:15.443Z,1.80
2018-08-31T18:17:43.691Z,1.10
2018-08-31T18:20:11.633Z,1.60
2018-08-31T18:22:40.274Z,1.60
2018-08-31T18:25:07.809Z,1.50
2018-08-31T18:27:35.331Z,1.50
2018-08-31T18:30:02.944Z,1.40
2018-08-31T18:32:32.921Z,1.53
2018-08-31T18:35:00.566Z,1.47
2018-08-31T18:37:28.155Z,1.40
2018-08-31T18:39:55.789Z,1.63
2018-08-31T18:42:23.318Z,1.58
2018-08-31T18:44:51.237Z,1.50
2018-08-31T18:47:18.798Z,1.50
2018-08-31T18:49:46.588Z,1.30
2018-08-31T18:52:14.207Z,1.20
2018-08-31T18:54:41.721Z,1.90
2018-08-31T18:57:09.250Z,1.27
2018-08-31T18:59:36.905Z,1.40
2018-08-31T19:02:04.449Z,1.30
2018-08-31T19:04:34.170Z,1.60
2018-08-31T19:07:02.881Z,1.17
2018-08-31T19:09:30.585Z,1.57
2018-08-31T19:11:59.312Z,1.30
2018-08-31T19:14:26.994Z,1.67
2018-08-31T19:16:56.671Z,1.33
2018-08-31T19:19:25.272Z,1.30
2018-08-31T19:21:52.802Z,1.40
2018-08-31T19:24:21.483Z,1.60
2018-08-31T19:26:52.608Z,1.43
2018-08-31T19:29:20.235Z,1.60
2018-08-31T19:31:48.711Z,1.40
2018-08-31T19:34:16.266Z,1.30
2018-08-31T19:36:44.911Z,1.47
2018-08-31T19:39:12.615Z,1.20
2018-08-31T19:41:40.174Z,1.50
2018-08-31T19:44:08.702Z,1.33
2018-08-31T19:46:36.302Z,1.40
2018-08-31T19:49:05.865Z,1.30
2018-08-31T19:51:37.056Z,1.43
2018-08-31T19:54:04.694Z,1.13
2018-08-31T19:56:32.234Z,1.60
2018-08-31T19:58:59.800Z,1.40
2018-08-31T20:01:27.360Z,1.37
2018-08-31T20:03:55.850Z,1.33
2018-08-31T20:06:25.508Z,1.30
2018-08-31T20:08:53.026Z,1.40
2018-08-31T20:11:20.602Z,1.20
2018-08-31T20:13:48.182Z,1.20
2018-08-31T20:16:17.818Z,1.47
2018-08-31T20:18:45.404Z,1.30
2018-08-31T20:21:12.938Z,1.40
2018-08-31T20:23:43.750Z,1.80
2018-08-31T20:26:11.615Z,1.27
2018-08-31T20:28:39.194Z,1.37
2018-08-31T20:31:06.763Z,1.70
2018-08-31T20:33:34.307Z,1.47
2018-08-31T20:36:03.842Z,1.47
2018-08-31T20:38:31.402Z,1.60
2018-08-31T20:40:58.958Z,1.50
2018-08-31T20:43:26.515Z,1.40
2018-08-31T20:45:54.050Z,1.60
2018-08-31T20:48:22.709Z,1.37
2018-08-31T20:50:50.306Z,1.60
2018-08-31T20:53:17.836Z,1.57
2018-08-31T20:55:45.380Z,1.90
2018-08-31T20:58:12.948Z,1.60
2018-08-31T21:00:40.538Z,1.60
2018-08-31T21:03:13.588Z,1.60
2018-08-31T21:05:41.150Z,1.77
2018-08-31T21:08:08.720Z,1.87
2018-08-31T21:10:36.276Z,2.20
2018-08-31T21:13:03.808Z,1.60
2018-08-31T21:15:54.133Z,1.80
2018-08-31T21:18:21.662Z,1.87
2018-08-31T21:20:49.250Z,1.90
2018-08-31T21:23:16.926Z,2.00
2018-08-31T21:25:44.512Z,2.00
2018-08-31T21:28:13.061Z,2.00
2018-08-31T21:30:46.056Z,2.00
2018-08-31T21:33:16.100Z,2.00
2018-08-31T21:35:43.788Z,1.50
2018-08-31T21:38:11.645Z,1.80
2018-08-31T21:40:39.202Z,1.70
2018-08-31T21:43:06.813Z,1.97
2018-08-31T21:45:35.428Z,1.73
2018-08-31T21:48:05.093Z,1.93
2018-08-31T21:50:32.705Z,2.07
2018-08-31T21:53:00.247Z,2.30
2018-08-31T21:55:27.859Z,2.00
2018-08-31T21:57:57.361Z,2.03
2018-08-31T22:00:29.053Z,2.40
2018-08-31T22:02:56.611Z,2.20
2018-08-31T22:05:24.128Z,2.27
2018-08-31T22:07:51.697Z,2.10
2018-08-31T22:10:19.230Z,2.20
2018-08-31T22:12:48.873Z,2.10
2018-08-31T22:15:16.417Z,2.10
2018-08-31T22:17:44.081Z,2.47
2018-08-31T22:20:15.902Z,2.35
2018-08-31T22:22:44.533Z,2.27
2018-08-31T22:25:12.288Z,2.23
2018-08-31T22:27:39.864Z,2.47
2018-08-31T22:30:08.470Z,2.50
2018-08-31T22:32:36.063Z,2.13
2018-08-31T22:35:03.639Z,2.20
2018-08-31T22:37:32.270Z,2.50
2018-08-31T22:39:59.778Z,1.90
2018-08-31T22:42:27.384Z,2.10
2018-08-31T22:44:54.896Z,2.37
2018-08-31T22:47:22.439Z,2.53
2018-08-31T22:49:50.002Z,2.07
2018-08-31T22:52:17.531Z,2.70
2018-08-31T22:54:47.038Z,2.60
2018-08-31T22:57:14.635Z,2.77
2018-08-31T22:59:42.227Z,2.80
2018-08-31T23:02:16.174Z,2.67
2018-08-31T23:04:43.912Z,2.33
2018-08-31T23:07:11.482Z,2.50
2018-08-31T23:09:39.065Z,2.70
2018-08-31T23:12:06.613Z,2.60
2018-08-31T23:14:34.144Z,2.70
2018-08-31T23:17:01.744Z,2.80
2018-08-31T23:19:29.256Z,2.50
2018-08-31T23:21:56.781Z,2.40
2018-08-31T23:24:24.347Z,2.43
2018-08-31T23:26:51.888Z,2.80
2018-08-31T23:29:19.445Z,2.40
2018-08-31T23:31:47.017Z,3.03
2018-08-31T23:34:14.557Z,2.40
2018-08-31T23:36:42.129Z,2.43
2018-08-31T23:39:09.712Z,2.87
2018-08-31T23:41:37.267Z,2.60
2018-08-31T23:44:04.803Z,3.33
2018-08-31T23:46:32.329Z,3.00
2018-08-31T23:48:59.917Z,3.10
2018-08-31T23:51:27.488Z,3.10
2018-08-31T23:53:56.162Z,3.30
2018-08-31T23:56:23.721Z,2.77
2018-08-31T23:58:51.312Z,3.20
